Time;durP1;ratioP1;P1;durP2;ratioP2;P2;SDS_P1;SDS_P2;PMS_P1;PMS_P2;Temp;Humidity;BMP_temperature;BMP_pressure;BME280_temperature;BME280_humidity;BME280_pressure;Samples;Min_cycle;Max_cycle;Signal;HPM_P1;HPM_P2
2022/09/17 00:01:48;;;;;;;5.82;1.52;;;;;;;;;;5054652;28;20029;-71
2022/09/17 00:04:14;;;;;;;3.92;1.48;;;;;;;;;;5055146;28;20033;-72
2022/09/17 00:06:40;;;;;;;3.33;1.50;;;;;;;;;;5054270;28;20520;-71
2022/09/17 00:09:07;;;;;;;10.30;2.53;;;;;;;;;;5054162;28;20033;-71
2022/09/17 00:11:35;;;;;;;3.58;1.52;;;;;;;;;;5054182;28;20385;-71
2022/09/17 00:14:01;;;;;;;4.32;1.30;;;;;;;;;;5054383;28;20025;-71
2022/09/17 00:16:32;;;;;;;2.80;1.50;;;;;;;;;;5054125;28;20021;-72
2022/09/17 00:18:59;;;;;;;2.40;1.48;;;;;;;;;;5054596;28;20025;-73
2022/09/17 00:21:25;;;;;;;3.40;1.65;;;;;;;;;;5053959;28;20021;-70
2022/09/17 00:23:55;;;;;;;5.80;1.73;;;;;;;;;;5053997;28;20070;-71
2022/09/17 00:26:21;;;;;;;4.03;1.67;;;;;;;;;;5054172;28;20021;-72
2022/09/17 00:28:51;;;;;;;6.00;1.73;;;;;;;;;;5053790;28;20060;-71
2022/09/17 00:31:17;;;;;;;2.45;1.40;;;;;;;;;;5054107;28;20028;-71
2022/09/17 00:33:43;;;;;;;2.80;1.60;;;;;;;;;;5053823;28;20069;-72
2022/09/17 00:36:10;;;;;;;5.45;1.65;;;;;;;;;;5054044;28;20025;-72
2022/09/17 00:38:36;;;;;;;3.92;1.73;;;;;;;;;;5053823;28;20096;-72
2022/09/17 00:41:03;;;;;;;3.28;1.45;;;;;;;;;;5053328;28;20124;-71
2022/09/17 00:43:34;;;;;;;3.60;1.67;;;;;;;;;;5053638;28;20033;-72
2022/09/17 00:46:00;;;;;;;3.63;1.60;;;;;;;;;;5053907;28;20137;-71
2022/09/17 00:48:26;;;;;;;3.05;1.70;;;;;;;;;;5053799;28;20033;-71
2022/09/17 00:50:53;;;;;;;2.65;1.55;;;;;;;;;;5053437;28;20024;-72
2022/09/17 00:53:20;;;;;;;4.88;1.73;;;;;;;;;;5053483;28;20148;-70
2022/09/17 00:55:57;;;;;;;4.20;2.15;;;;;;;;;;5053457;28;20063;-71
2022/09/17 00:58:25;;;;;;;4.13;1.70;;;;;;;;;;5053431;28;20056;-72
2022/09/17 01:00:51;;;;;;;5.53;1.63;;;;;;;;;;5053669;28;20025;-71
2022/09/17 01:03:17;;;;;;;3.85;1.48;;;;;;;;;;5053356;28;20071;-71
2022/09/17 01:05:53;;;;;;;2.63;1.58;;;;;;;;;;5054061;28;20021;-71
2022/09/17 01:08:39;;;;;;;2.67;1.52;;;;;;;;;;5053569;28;20040;-72
2022/09/17 01:11:24;;;;;;;2.47;1.63;;;;;;;;;;5032612;28;20040;-71
2022/09/17 01:14:06;;;;;;;2.60;1.70;;;;;;;;;;5053727;28;20482;-71
2022/09/17 01:16:45;;;;;;;4.43;1.45;;;;;;;;;;5035037;28;20405;-70
2022/09/17 01:19:29;;;;;;;3.15;1.75;;;;;;;;;;5053396;28;20101;-71
2022/09/17 01:22:10;;;;;;;4.07;1.70;;;;;;;;;;5035236;28;20033;-71
2022/09/17 01:24:42;;;;;;;5.13;1.70;;;;;;;;;;5053418;28;20025;-71
2022/09/17 01:27:31;;;;;;;2.63;1.73;;;;;;;;;;5053318;28;20021;-71
2022/09/17 01:30:31;;;;;;;2.05;1.52;;;;;;;;;;5033989;28;20070;-72
2022/09/17 01:33:12;;;;;;;4.30;1.88;;;;;;;;;;5030873;28;20155;-72
2022/09/17 01:35:38;;;;;;;2.33;1.50;;;;;;;;;;5053584;28;20032;-72
2022/09/17 01:38:14;;;;;;;1.65;1.55;;;;;;;;;;5052974;28;20025;-72
2022/09/17 01:40:55;;;;;;;2.10;1.63;;;;;;;;;;5053267;28;20033;-72
2022/09/17 01:43:22;;;;;;;4.45;2.08;;;;;;;;;;5053540;28;20029;-72
2022/09/17 01:45:55;;;;;;;2.92;1.77;;;;;;;;;;5053165;28;20025;-72
2022/09/17 01:48:24;;;;;;;3.92;1.80;;;;;;;;;;5053410;28;20032;-71
2022/09/17 01:50:59;;;;;;;3.60;1.80;;;;;;;;;;5054424;28;20036;-71
2022/09/17 01:53:28;;;;;;;4.88;1.60;;;;;;;;;;5057465;28;20021;-71
2022/09/17 01:55:56;;;;;;;3.13;1.63;;;;;;;;;;5056778;28;20017;-69
2022/09/17 01:58:26;;;;;;;2.63;1.45;;;;;;;;;;5056727;28;20488;-70
2022/09/17 02:00:55;;;;;;;3.30;1.70;;;;;;;;;;5056729;28;20366;-71
2022/09/17 02:03:26;;;;;;;2.63;1.80;;;;;;;;;;5056648;28;20436;-71
2022/09/17 02:05:55;;;;;;;4.88;1.77;;;;;;;;;;5057101;28;20029;-71
2022/09/17 02:08:23;;;;;;;4.38;1.58;;;;;;;;;;5056520;28;20025;-70
2022/09/17 02:11:21;;;;;;;3.70;1.60;;;;;;;;;;5056745;28;20079;-72
2022/09/17 02:13:47;;;;;;;4.25;1.50;;;;;;;;;;5033835;28;20033;-71
2022/09/17 02:16:17;;;;;;;1.95;1.60;;;;;;;;;;5056393;28;20098;-72
2022/09/17 02:18:43;;;;;;;;;;;;;;;;;;5057149;28;20039;-71
2022/09/17 02:21:36;;;;;;;4.28;1.60;;;;;;;;;;5056277;28;19909;-71
2022/09/17 02:24:09;;;;;;;3.22;1.83;;;;;;;;;;5036353;28;20460;-72
2022/09/17 02:26:38;;;;;;;1.63;1.45;;;;;;;;;;5056225;28;20095;-71
2022/09/17 02:29:09;;;;;;;2.67;1.42;;;;;;;;;;5038222;28;20397;-71
2022/09/17 02:31:35;;;;;;;3.80;1.60;;;;;;;;;;5056480;28;20104;-72
2022/09/17 02:34:03;;;;;;;3.85;1.67;;;;;;;;;;5056113;28;20024;-72
2022/09/17 02:36:30;;;;;;;4.03;1.58;;;;;;;;;;5056076;28;20025;-71
2022/09/17 02:39:00;;;;;;;1.92;1.60;;;;;;;;;;5056037;28;20020;-72
2022/09/17 02:41:32;;;;;;;3.88;1.85;;;;;;;;;;5056266;28;20096;-71
2022/09/17 02:44:07;;;;;;;4.25;2.00;;;;;;;;;;5056208;28;20059;-70
2022/09/17 02:46:43;;;;;;;2.95;1.80;;;;;;;;;;5056142;28;20031;-71
2022/09/17 02:49:24;;;;;;;3.08;1.52;;;;;;;;;;5056090;28;20397;-71
2022/09/17 02:52:03;;;;;;;2.97;1.95;;;;;;;;;;5056380;28;20025;-70
2022/09/17 02:54:47;;;;;;;3.28;1.90;;;;;;;;;;5055984;28;20047;-71
2022/09/17 02:57:17;;;;;;;2.83;1.55;;;;;;;;;;5056232;28;20096;-71
2022/09/17 02:59:48;;;;;;;2.67;1.95;;;;;;;;;;5055325;28;20049;-72
2022/09/17 03:02:14;;;;;;;2.85;1.58;;;;;;;;;;5054539;28;20029;-71
2022/09/17 03:04:42;;;;;;;2.17;1.70;;;;;;;;;;5056230;28;20049;-70
2022/09/17 03:07:08;;;;;;;2.90;1.58;;;;;;;;;;5055384;28;20397;-71
2022/09/17 03:09:35;;;;;;;3.08;1.70;;;;;;;;;;5055621;28;20032;-71
2022/09/17 03:12:01;;;;;;;2.17;1.73;;;;;;;;;;5055905;28;20021;-70
2022/09/17 03:14:27;;;;;;;4.80;2.08;;;;;;;;;;5055358;28;20079;-70
2022/09/17 03:16:53;;;;;;;2.60;1.48;;;;;;;;;;5055554;28;20029;-71
2022/09/17 03:19:19;;;;;;;3.25;1.85;;;;;;;;;;5055228;28;20033;-70
2022/09/17 03:21:45;;;;;;;2.60;1.70;;;;;;;;;;5055193;28;20025;-72
2022/09/17 03:24:12;;;;;;;2.35;2.05;;;;;;;;;;5055412;28;20032;-71
2022/09/17 03:26:38;;;;;;;4.72;2.00;;;;;;;;;;5037992;28;20370;-72
2022/09/17 03:29:04;;;;;;;2.65;1.92;;;;;;;;;;5054966;28;20397;-71
2022/09/17 03:31:31;;;;;;;6.63;1.90;;;;;;;;;;5054946;28;20025;-72
2022/09/17 03:33:57;;;;;;;2.38;1.70;;;;;;;;;;5055220;28;20029;-72
2022/09/17 03:36:23;;;;;;;2.53;1.70;;;;;;;;;;5054892;28;20025;-72
2022/09/17 03:38:53;;;;;;;4.88;1.92;;;;;;;;;;5054893;28;20468;-72
2022/09/17 03:41:19;;;;;;;1.90;1.43;;;;;;;;;;5054852;28;20059;-72
2022/09/17 03:43:45;;;;;;;1.50;1.33;;;;;;;;;;5054802;28;20271;-70
2022/09/17 03:46:11;;;;;;;2.13;1.60;;;;;;;;;;5054993;28;20060;-71
2022/09/17 03:48:38;;;;;;;4.10;2.00;;;;;;;;;;5054656;28;20029;-70
2022/09/17 03:51:04;;;;;;;2.30;1.83;;;;;;;;;;5054837;28;20056;-71
2022/09/17 03:53:31;;;;;;;2.25;1.58;;;;;;;;;;5054563;28;20027;-71
2022/09/17 03:55:58;;;;;;;3.35;1.60;;;;;;;;;;5054786;28;20024;-71
2022/09/17 03:58:24;;;;;;;2.17;1.42;;;;;;;;;;5054273;28;20037;-72
2022/09/17 04:00:56;;;;;;;3.65;1.70;;;;;;;;;;5054445;28;20040;-72
2022/09/17 04:03:22;;;;;;;3.80;1.77;;;;;;;;;;5054409;28;20040;-71
2022/09/17 04:05:48;;;;;;;3.08;1.70;;;;;;;;;;5054816;28;20028;-70
2022/09/17 04:08:14;;;;;;;1.63;1.50;;;;;;;;;;5054281;28;20029;-71
2022/09/17 04:10:40;;;;;;;4.07;1.83;;;;;;;;;;5054178;28;20485;-71
2022/09/17 04:13:06;;;;;;;4.43;2.03;;;;;;;;;;5054044;28;20108;-72
2022/09/17 04:15:32;;;;;;;2.00;1.80;;;;;;;;;;5054180;28;20017;-71
2022/09/17 04:17:58;;;;;;;3.30;1.42;;;;;;;;;;5054126;28;20469;-70
2022/09/17 04:20:24;;;;;;;2.42;1.70;;;;;;;;;;5054047;28;20032;-71
2022/09/17 04:22:51;;;;;;;2.13;1.60;;;;;;;;;;5054039;28;20052;-71
2022/09/17 04:25:17;;;;;;;3.47;1.58;;;;;;;;;;5054239;28;20064;-70
2022/09/17 04:27:43;;;;;;;2.65;1.60;;;;;;;;;;5053925;28;20477;-72
2022/09/17 04:30:10;;;;;;;1.95;1.33;;;;;;;;;;5054114;28;20025;-71
2022/09/17 04:32:36;;;;;;;3.00;1.40;;;;;;;;;;5054124;28;20017;-72
2022/09/17 04:35:02;;;;;;;2.25;1.40;;;;;;;;;;5053761;28;20492;-72
2022/09/17 04:37:28;;;;;;;2.83;1.58;;;;;;;;;;5053771;28;20017;-71
2022/09/17 04:39:54;;;;;;;3.15;1.88;;;;;;;;;;5053972;28;20021;-71
2022/09/17 04:42:20;;;;;;;2.08;1.77;;;;;;;;;;5053663;28;20493;-72
2022/09/17 04:44:45;;;;;;;2.30;1.60;;;;;;;;;;5053638;28;20033;-71
2022/09/17 04:47:11;;;;;;;1.88;1.52;;;;;;;;;;5053881;28;20083;-71
2022/09/17 04:49:37;;;;;;;2.65;1.60;;;;;;;;;;5053515;28;20112;-71
2022/09/17 04:52:03;;;;;;;3.28;1.45;;;;;;;;;;5053527;28;20033;-71
2022/09/17 04:54:29;;;;;;;3.15;1.30;;;;;;;;;;5053743;28;20404;-70
2022/09/17 04:56:55;;;;;;;1.73;1.30;;;;;;;;;;5053443;28;20048;-72
2022/09/17 04:59:21;;;;;;;1.88;1.40;;;;;;;;;;5053397;28;20051;-71
2022/09/17 05:01:48;;;;;;;2.47;1.90;;;;;;;;;;5053393;28;20115;-73
2022/09/17 05:04:14;;;;;;;3.25;1.48;;;;;;;;;;5053361;28;20079;-70
2022/09/17 05:06:41;;;;;;;6.30;1.65;;;;;;;;;;5054054;28;20086;-73
2022/09/17 05:09:07;;;;;;;3.22;1.60;;;;;;;;;;5035361;28;20152;-71
2022/09/17 05:11:33;;;;;;;2.40;1.48;;;;;;;;;;5053246;28;20024;-72
2022/09/17 05:13:59;;;;;;;4.53;1.30;;;;;;;;;;5053175;28;20085;-72
2022/09/17 05:16:25;;;;;;;2.45;1.70;;;;;;;;;;5053200;28;20025;-71
2022/09/17 05:18:51;;;;;;;1.80;1.30;;;;;;;;;;5053753;28;20032;-71
2022/09/17 05:21:19;;;;;;;2.60;1.70;;;;;;;;;;5053205;28;20028;-71
2022/09/17 05:23:45;;;;;;;2.38;1.60;;;;;;;;;;5053132;28;20021;-71
2022/09/17 05:26:11;;;;;;;3.38;1.85;;;;;;;;;;5052804;28;20025;-72
2022/09/17 05:28:37;;;;;;;5.80;1.83;;;;;;;;;;5053337;28;20532;-71
2022/09/17 05:31:03;;;;;;;3.10;1.70;;;;;;;;;;5053216;28;20025;-71
2022/09/17 05:33:29;;;;;;;3.20;1.65;;;;;;;;;;5053017;28;20021;-71
2022/09/17 05:35:55;;;;;;;2.70;1.60;;;;;;;;;;5053010;28;20478;-71
2022/09/17 05:38:21;;;;;;;2.20;1.83;;;;;;;;;;5053261;28;20028;-72
2022/09/17 05:40:50;;;;;;;8.43;2.05;;;;;;;;;;5052949;28;20496;-71
2022/09/17 05:43:16;;;;;;;10.57;1.98;;;;;;;;;;5052925;28;20074;-70
2022/09/17 05:45:42;;;;;;;2.25;1.30;;;;;;;;;;5052952;28;20025;-71
2022/09/17 05:48:11;;;;;;;2.35;1.70;;;;;;;;;;5053426;28;20024;-71
2022/09/17 05:50:37;;;;;;;3.95;1.67;;;;;;;;;;5053331;28;20021;-71
2022/09/17 05:53:04;;;;;;;3.22;1.58;;;;;;;;;;5053407;28;20472;-71
2022/09/17 05:55:30;;;;;;;3.00;1.80;;;;;;;;;;5034963;28;20374;-71
2022/09/17 05:57:56;;;;;;;4.10;1.58;;;;;;;;;;5034740;28;20397;-71
2022/09/17 06:00:22;;;;;;;3.55;1.40;;;;;;;;;;5052890;28;20040;-70
2022/09/17 06:02:53;;;;;;;3.25;1.52;;;;;;;;;;5052766;28;20025;-70
2022/09/17 06:05:19;;;;;;;3.80;1.70;;;;;;;;;;5053270;28;20059;-72
2022/09/17 06:07:46;;;;;;;6.38;2.45;;;;;;;;;;5052711;28;20029;-71
2022/09/17 06:10:12;;;;;;;4.03;1.85;;;;;;;;;;5052608;28;20451;-71
2022/09/17 06:12:38;;;;;;;5.07;1.70;;;;;;;;;;5052680;28;20393;-72
2022/09/17 06:15:04;;;;;;;1.70;1.60;;;;;;;;;;5052631;28;20104;-72
2022/09/17 06:17:33;;;;;;;3.25;1.60;;;;;;;;;;5052612;28;20489;-71
2022/09/17 06:20:00;;;;;;;4.32;1.75;;;;;;;;;;5052929;28;20053;-71
2022/09/17 06:22:26;;;;;;;3.45;1.77;;;;;;;;;;5053154;28;20457;-72
2022/09/17 06:24:52;;;;;;;3.75;1.70;;;;;;;;;;5052573;28;20025;-71
2022/09/17 06:27:18;;;;;;;3.85;1.60;;;;;;;;;;5052577;28;20397;-72
2022/09/17 06:29:44;;;;;;;2.63;1.67;;;;;;;;;;5052480;28;20021;-71
2022/09/17 06:32:11;;;;;;;6.63;2.22;;;;;;;;;;5052528;28;20032;-72
2022/09/17 06:34:38;;;;;;;3.28;1.83;;;;;;;;;;5052472;28;20108;-71
2022/09/17 06:37:04;;;;;;;2.55;1.80;;;;;;;;;;5052509;28;20017;-70
2022/09/17 06:39:30;;;;;;;4.97;1.80;;;;;;;;;;5056307;28;20396;-71
2022/09/17 06:41:56;;;;;;;4.28;2.67;;;;;;;;;;5055946;28;20120;-72
2022/09/17 06:44:22;;;;;;;3.75;2.10;;;;;;;;;;5055899;28;20036;-70
2022/09/17 06:46:49;;;;;;;6.43;2.10;;;;;;;;;;5056413;28;20064;-72
2022/09/17 06:49:16;;;;;;;3.88;1.77;;;;;;;;;;5056043;28;20048;-71
2022/09/17 06:51:42;;;;;;;3.17;1.85;;;;;;;;;;5056068;28;20024;-72
2022/09/17 06:54:09;;;;;;;2.58;2.10;;;;;;;;;;5055722;28;20059;-71
2022/09/17 06:56:35;;;;;;;16.60;2.83;;;;;;;;;;5056032;28;20434;-71
2022/09/17 06:59:01;;;;;;;2.10;1.85;;;;;;;;;;5055463;28;20056;-70
2022/09/17 07:01:27;;;;;;;2.95;1.92;;;;;;;;;;5055877;28;20099;-71
2022/09/17 07:03:53;;;;;;;4.13;1.90;;;;;;;;;;5055823;28;20021;-72
2022/09/17 07:06:19;;;;;;;6.03;1.98;;;;;;;;;;5055982;28;20023;-72
2022/09/17 07:08:46;;;;;;;4.43;1.98;;;;;;;;;;5056000;28;20477;-70
2022/09/17 07:11:12;;;;;;;2.30;1.70;;;;;;;;;;5055309;28;20025;-71
2022/09/17 07:13:38;;;;;;;3.00;1.63;;;;;;;;;;5055358;28;20104;-71
2022/09/17 07:16:05;;;;;;;3.35;1.90;;;;;;;;;;5055565;28;20389;-71
2022/09/17 07:18:31;;;;;;;3.28;1.98;;;;;;;;;;5055263;28;20021;-71
2022/09/17 07:20:58;;;;;;;3.15;2.00;;;;;;;;;;5055206;28;20029;-72
2022/09/17 07:23:25;;;;;;;5.40;2.78;;;;;;;;;;5055204;28;20056;-71
2022/09/17 07:25:52;;;;;;;6.95;2.45;;;;;;;;;;5055131;28;20031;-71
2022/09/17 07:28:18;;;;;;;4.18;2.08;;;;;;;;;;5055084;28;20033;-72
2022/09/17 07:30:44;;;;;;;4.68;2.42;;;;;;;;;;5055300;28;20079;-70
2022/09/17 07:33:11;;;;;;;4.57;2.30;;;;;;;;;;5054983;28;20477;-71
2022/09/17 07:35:37;;;;;;;6.20;2.08;;;;;;;;;;5037164;28;20021;-72
2022/09/17 07:38:03;;;;;;;4.60;2.50;;;;;;;;;;5055153;28;20021;-72
2022/09/17 07:40:29;;;;;;;2.88;2.22;;;;;;;;;;5055150;28;20032;-71
2022/09/17 07:42:59;;;;;;;5.53;2.00;;;;;;;;;;5055047;28;20071;-71
2022/09/17 07:45:25;;;;;;;;;;;;;;;;;;5037037;28;20432;-72
2022/09/17 07:47:51;;;;;;;4.63;2.10;;;;;;;;;;5055027;28;19911;-72
2022/09/17 07:50:17;;;;;;;4.07;1.83;;;;;;;;;;5036472;28;20028;-72
2022/09/17 07:52:46;;;;;;;5.28;1.80;;;;;;;;;;5054646;28;20025;-70
2022/09/17 07:55:13;;;;;;;4.28;1.77;;;;;;;;;;5054900;28;20087;-72
2022/09/17 07:57:39;;;;;;;3.28;1.60;;;;;;;;;;5054541;28;20465;-71
2022/09/17 08:00:05;;;;;;;3.28;1.73;;;;;;;;;;5054299;28;20049;-72
2022/09/17 08:02:31;;;;;;;3.58;1.75;;;;;;;;;;5054667;28;20021;-71
2022/09/17 08:04:57;;;;;;;2.45;1.60;;;;;;;;;;5054656;28;20031;-71
2022/09/17 08:07:23;;;;;;;3.45;1.75;;;;;;;;;;5054879;28;20025;-71
2022/09/17 08:09:50;;;;;;;2.17;1.40;;;;;;;;;;5054247;28;20029;-71
2022/09/17 08:12:18;;;;;;;4.10;1.52;;;;;;;;;;5054262;28;20021;-70
2022/09/17 08:14:44;;;;;;;4.47;1.63;;;;;;;;;;5054190;28;20025;-72
2022/09/17 08:17:10;;;;;;;3.25;1.58;;;;;;;;;;5054424;28;20384;-71
2022/09/17 08:19:36;;;;;;;5.10;1.90;;;;;;;;;;5054112;28;20095;-72
2022/09/17 08:22:02;;;;;;;4.88;2.13;;;;;;;;;;5054021;28;20474;-71
2022/09/17 08:24:28;;;;;;;3.60;1.48;;;;;;;;;;5054299;28;20465;-71
2022/09/17 08:26:54;;;;;;;4.82;1.60;;;;;;;;;;5053993;28;20025;-71
2022/09/17 08:29:20;;;;;;;2.40;1.50;;;;;;;;;;5053829;28;20040;-72
2022/09/17 08:31:47;;;;;;;2.47;1.65;;;;;;;;;;5053665;28;20105;-73
2022/09/17 08:34:13;;;;;;;5.35;1.98;;;;;;;;;;5053735;28;20453;-72
2022/09/17 08:36:39;;;;;;;6.88;1.80;;;;;;;;;;5053662;28;20489;-71
2022/09/17 08:39:05;;;;;;;2.20;1.30;;;;;;;;;;5053774;28;20031;-72
2022/09/17 08:41:37;;;;;;;2.38;1.13;;;;;;;;;;5054296;28;20017;-71
2022/09/17 08:44:29;;;;;;;3.88;1.33;;;;;;;;;;5054226;28;20048;-71
2022/09/17 08:47:00;;;;;;;3.67;1.38;;;;;;;;;;5051682;28;20059;-71
2022/09/17 08:49:29;;;;;;;4.63;1.33;;;;;;;;;;5054024;28;20087;-71
2022/09/17 08:51:58;;;;;;;9.52;1.55;;;;;;;;;;5054060;28;20075;-72
2022/09/17 08:54:27;;;;;;;3.35;1.05;;;;;;;;;;5054091;28;20067;-71
2022/09/17 08:57:03;;;;;;;3.45;1.65;;;;;;;;;;5053445;28;20021;-72
2022/09/17 08:59:38;;;;;;;1.83;1.00;;;;;;;;;;5053115;28;20045;-70
2022/09/17 09:02:20;;;;;;;3.17;1.08;;;;;;;;;;5053339;28;20025;-72
2022/09/17 09:04:58;;;;;;;3.47;1.60;;;;;;;;;;5053630;28;20079;-70
2022/09/17 09:07:27;;;;;;;4.35;1.48;;;;;;;;;;5053733;28;20028;-69
2022/09/17 09:10:00;;;;;;;5.55;1.83;;;;;;;;;;5053209;28;20036;-71
2022/09/17 09:12:27;;;;;;;6.93;2.45;;;;;;;;;;5053939;28;20021;-71
2022/09/17 09:14:57;;;;;;;6.35;1.92;;;;;;;;;;5053415;28;20048;-74
2022/09/17 09:17:25;;;;;;;6.90;1.77;;;;;;;;;;5053483;28;20508;-77
2022/09/17 09:19:53;;;;;;;11.85;1.55;;;;;;;;;;5035374;28;20409;-79
2022/09/17 09:22:34;;;;;;;2.60;1.17;;;;;;;;;;5035260;28;20025;-76
2022/09/17 09:25:03;;;;;;;4.43;1.42;;;;;;;;;;5053596;28;20025;-77
2022/09/17 09:27:36;;;;;;;2.75;0.98;;;;;;;;;;5053678;28;20029;-77
2022/09/17 09:30:05;;;;;;;2.15;0.90;;;;;;;;;;5053714;28;20061;-77
2022/09/17 09:32:31;;;;;;;3.53;1.05;;;;;;;;;;5053695;28;20370;-70
2022/09/17 09:35:00;;;;;;;2.35;1.02;;;;;;;;;;5052983;28;20029;-78
2022/09/17 09:37:26;;;;;;;4.53;1.23;;;;;;;;;;5052976;28;20028;-72
2022/09/17 09:39:54;;;;;;;1.67;0.90;;;;;;;;;;5052916;28;20533;-73
2022/09/17 09:42:30;;;;;;;3.47;0.80;;;;;;;;;;5052973;28;20501;-72
2022/09/17 09:44:58;;;;;;;3.65;1.05;;;;;;;;;;5053161;28;20029;-72
2022/09/17 09:47:38;;;;;;;2.33;1.20;;;;;;;;;;5052899;28;20070;-72
2022/09/17 09:50:22;;;;;;;4.75;0.90;;;;;;;;;;5052823;28;20026;-72
2022/09/17 09:52:51;;;;;;;2.05;1.17;;;;;;;;;;5053286;28;20491;-73
2022/09/17 09:55:23;;;;;;;4.13;1.10;;;;;;;;;;5053011;28;20024;-72
2022/09/17 09:57:51;;;;;;;1.95;0.93;;;;;;;;;;5052735;28;20480;-71
2022/09/17 10:00:27;;;;;;;4.50;1.05;;;;;;;;;;5052972;28;20037;-72
2022/09/17 10:02:54;;;;;;;3.03;0.98;;;;;;;;;;5053054;28;20381;-77
2022/09/17 10:05:20;;;;;;;4.25;1.30;;;;;;;;;;5052588;28;20064;-73
2022/09/17 10:07:46;;;;;;;2.03;0.95;;;;;;;;;;5053195;28;20107;-72
2022/09/17 10:10:12;;;;;;;1.70;0.80;;;;;;;;;;5052790;28;20108;-71
2022/09/17 10:12:38;;;;;;;2.97;0.93;;;;;;;;;;5055197;28;20438;-70
2022/09/17 10:15:31;;;;;;;2.22;0.70;;;;;;;;;;5056723;28;20056;-72
2022/09/17 10:18:16;;;;;;;2.78;0.73;;;;;;;;;;5054764;28;20025;-71
2022/09/17 10:20:50;;;;;;;1.58;0.88;;;;;;;;;;5057217;28;20035;-71
2022/09/17 10:23:17;;;;;;;2.03;0.70;;;;;;;;;;5056445;28;20107;-71
2022/09/17 10:25:43;;;;;;;3.65;1.15;;;;;;;;;;5055720;28;20051;-72
2022/09/17 10:28:32;;;;;;;1.15;0.80;;;;;;;;;;5055751;28;20083;-71
2022/09/17 10:30:59;;;;;;;2.05;0.80;;;;;;;;;;5050025;28;20068;-72
2022/09/17 10:33:28;;;;;;;1.65;0.60;;;;;;;;;;5055747;28;20095;-72
2022/09/17 10:36:01;;;;;;;1.33;0.70;;;;;;;;;;5055794;28;20087;-72
2022/09/17 10:38:28;;;;;;;0.93;0.57;;;;;;;;;;5055985;28;20075;-72
2022/09/17 10:41:08;;;;;;;1.92;0.80;;;;;;;;;;5055991;28;20025;-72
2022/09/17 10:43:34;;;;;;;3.72;0.60;;;;;;;;;;5056002;28;20025;-72
2022/09/17 10:46:00;;;;;;;3.35;1.08;;;;;;;;;;5055911;28;20029;-71
2022/09/17 10:48:30;;;;;;;3.22;1.30;;;;;;;;;;5056018;28;20029;-72
2022/09/17 10:50:56;;;;;;;4.00;0.75;;;;;;;;;;5055784;28;20033;-71
2022/09/17 10:53:24;;;;;;;2.40;0.80;;;;;;;;;;5056043;28;20025;-71
2022/09/17 10:55:58;;;;;;;2.33;0.77;;;;;;;;;;5056039;28;20465;-71
2022/09/17 10:58:29;;;;;;;2.83;0.80;;;;;;;;;;5055316;28;20064;-71
2022/09/17 11:00:59;;;;;;;3.75;1.10;;;;;;;;;;5055659;28;20033;-71
2022/09/17 11:03:45;;;;;;;1.63;0.90;;;;;;;;;;5055898;28;20107;-72
2022/09/17 11:06:14;;;;;;;2.15;0.70;;;;;;;;;;5056226;28;20029;-72
2022/09/17 11:08:40;;;;;;;4.13;0.85;;;;;;;;;;5055756;28;20028;-73
2022/09/17 11:11:10;;;;;;;1.77;0.80;;;;;;;;;;5055427;28;20029;-72
2022/09/17 11:13:51;;;;;;;2.58;0.90;;;;;;;;;;5055759;28;20082;-71
2022/09/17 11:16:23;;;;;;;2.85;0.90;;;;;;;;;;5055930;28;20032;-71
2022/09/17 11:18:59;;;;;;;2.00;0.77;;;;;;;;;;5055276;28;20025;-71
2022/09/17 11:21:48;;;;;;;3.17;0.77;;;;;;;;;;5055563;28;20061;-71
2022/09/17 11:24:32;;;;;;;1.23;0.70;;;;;;;;;;5054635;28;20505;-71
2022/09/17 11:27:17;;;;;;;3.45;0.57;;;;;;;;;;5055156;28;20082;-71
2022/09/17 11:29:43;;;;;;;3.17;1.17;;;;;;;;;;5055064;28;20025;-71
2022/09/17 11:32:11;;;;;;;1.35;0.75;;;;;;;;;;5055121;28;20099;-71
2022/09/17 11:34:42;;;;;;;6.03;0.98;;;;;;;;;;5055558;28;20086;-72
2022/09/17 11:37:20;;;;;;;2.50;0.80;;;;;;;;;;5055307;28;20029;-71
2022/09/17 11:39:55;;;;;;;1.10;0.70;;;;;;;;;;5055180;28;20032;-71
2022/09/17 11:42:24;;;;;;;4.30;0.80;;;;;;;;;;5055127;28;20025;-72
2022/09/17 11:44:55;;;;;;;3.63;0.90;;;;;;;;;;5055115;28;20021;-71
2022/09/17 11:47:27;;;;;;;3.80;1.23;;;;;;;;;;5055080;28;20497;-71
2022/09/17 11:49:53;;;;;;;1.77;0.63;;;;;;;;;;5054976;28;20052;-71
2022/09/17 11:52:25;;;;;;;0.95;0.85;;;;;;;;;;5054696;28;20473;-71
2022/09/17 11:54:58;;;;;;;2.80;0.70;;;;;;;;;;5036806;28;20021;-71
2022/09/17 11:57:32;;;;;;;1.27;0.50;;;;;;;;;;5054606;28;20025;-71
2022/09/17 11:59:58;;;;;;;4.90;0.98;;;;;;;;;;5054145;28;20049;-72
2022/09/17 12:02:24;;;;;;;5.07;0.80;;;;;;;;;;5054486;28;20024;-72
2022/09/17 12:05:10;;;;;;;1.88;0.90;;;;;;;;;;5054731;28;20036;-71
2022/09/17 12:07:40;;;;;;;6.82;1.00;;;;;;;;;;5054831;28;20086;-72
2022/09/17 12:10:06;;;;;;;;;;;;;;;;;;5055271;28;20028;-72
2022/09/17 12:12:33;;;;;;;1.92;0.70;;;;;;;;;;5054292;28;19905;-71
2022/09/17 12:15:07;;;;;;;1.85;0.80;;;;;;;;;;5054552;28;20025;-72
2022/09/17 12:17:46;;;;;;;2.13;0.80;;;;;;;;;;5035929;28;20021;-71
2022/09/17 12:20:30;;;;;;;1.43;0.70;;;;;;;;;;5054656;28;20052;-72
2022/09/17 12:22:57;;;;;;;2.03;0.90;;;;;;;;;;5054054;28;20035;-72
2022/09/17 12:25:26;;;;;;;1.35;0.60;;;;;;;;;;5054185;28;20021;-71
2022/09/17 12:28:15;;;;;;;2.13;0.90;;;;;;;;;;5053767;28;20104;-72
2022/09/17 12:30:46;;;;;;;2.22;0.65;;;;;;;;;;5048140;28;20045;-71
2022/09/17 12:33:19;;;;;;;3.47;0.88;;;;;;;;;;5053925;28;20060;-72
2022/09/17 12:36:03;;;;;;;0.90;0.70;;;;;;;;;;5053529;28;20469;-71
2022/09/17 12:38:57;;;;;;;5.47;0.93;;;;;;;;;;5053540;28;20031;-72
2022/09/17 12:41:28;;;;;;;1.77;0.80;;;;;;;;;;5053965;28;20469;-72
2022/09/17 12:44:13;;;;;;;0.90;0.68;;;;;;;;;;5053897;28;20159;-72
2022/09/17 12:46:39;;;;;;;2.28;0.75;;;;;;;;;;5053605;28;20032;-71
2022/09/17 12:49:24;;;;;;;4.22;1.10;;;;;;;;;;5053841;28;20025;-72
2022/09/17 12:51:55;;;;;;;2.95;1.08;;;;;;;;;;5035697;28;20062;-72
2022/09/17 12:54:29;;;;;;;2.88;0.90;;;;;;;;;;5053512;28;20036;-71
2022/09/17 12:57:08;;;;;;;4.18;0.90;;;;;;;;;;5053654;28;20032;-71
2022/09/17 12:59:35;;;;;;;2.17;0.85;;;;;;;;;;5053137;28;20041;-72
2022/09/17 13:02:03;;;;;;;6.30;0.90;;;;;;;;;;5053242;28;20155;-71
2022/09/17 13:04:35;;;;;;;10.25;1.38;;;;;;;;;;5053343;28;20017;-71
2022/09/17 13:07:01;;;;;;;1.05;0.70;;;;;;;;;;5054070;28;20025;-71
2022/09/17 13:09:27;;;;;;;1.52;0.73;;;;;;;;;;5053210;28;20040;-72
2022/09/17 13:11:53;;;;;;;2.42;0.80;;;;;;;;;;5053553;28;20032;-71
2022/09/17 13:14:24;;;;;;;3.70;0.70;;;;;;;;;;5053505;28;20021;-71
2022/09/17 13:16:57;;;;;;;1.10;0.65;;;;;;;;;;5053466;28;20039;-71
2022/09/17 13:19:35;;;;;;;2.70;0.85;;;;;;;;;;5053460;28;20017;-71
2022/09/17 13:22:12;;;;;;;2.78;0.68;;;;;;;;;;5053435;28;20071;-73
2022/09/17 13:24:39;;;;;;;2.17;0.98;;;;;;;;;;5053428;28;20021;-71
2022/09/17 13:27:06;;;;;;;2.05;0.85;;;;;;;;;;5053426;28;20082;-73
2022/09/17 13:30:01;;;;;;;3.42;0.80;;;;;;;;;;5052996;28;20545;-72
2022/09/17 13:32:36;;;;;;;2.28;0.80;;;;;;;;;;5044264;28;20041;-71
2022/09/17 13:35:14;;;;;;;3.50;0.77;;;;;;;;;;5053567;28;20083;-72
2022/09/17 13:37:41;;;;;;;3.70;0.73;;;;;;;;;;5053537;28;20528;-71
2022/09/17 13:40:36;;;;;;;1.30;0.73;;;;;;;;;;5053261;28;20444;-72
2022/09/17 13:43:05;;;;;;;2.25;1.00;;;;;;;;;;5044195;28;20115;-71
2022/09/17 13:45:32;;;;;;;1.17;0.45;;;;;;;;;;5052975;28;20393;-71
2022/09/17 13:48:04;;;;;;;1.23;0.70;;;;;;;;;;5056217;28;20029;-71
2022/09/17 13:50:30;;;;;;;2.38;0.70;;;;;;;;;;5056933;28;20029;-71
2022/09/17 13:52:57;;;;;;;2.67;0.80;;;;;;;;;;5057496;28;20362;-71
2022/09/17 13:55:30;;;;;;;2.00;0.52;;;;;;;;;;5056866;28;20049;-71
2022/09/17 13:57:56;;;;;;;2.03;0.60;;;;;;;;;;5056633;28;20029;-71
2022/09/17 14:00:42;;;;;;;0.50;0.35;;;;;;;;;;5056835;28;20044;-71
2022/09/17 14:03:26;;;;;;;1.60;0.55;;;;;;;;;;5056769;28;20024;-71
2022/09/17 14:05:52;;;;;;;2.55;0.90;;;;;;;;;;5056604;28;20556;-71
2022/09/17 14:08:37;;;;;;;0.57;0.45;;;;;;;;;;5057144;28;20116;-72
2022/09/17 14:11:27;;;;;;;2.97;0.80;;;;;;;;;;5056804;28;20021;-72
2022/09/17 14:13:57;;;;;;;1.85;0.57;;;;;;;;;;5056453;28;20024;-70
2022/09/17 14:16:39;;;;;;;1.67;0.68;;;;;;;;;;5057066;28;20028;-69
2022/09/17 14:19:23;;;;;;;3.03;0.70;;;;;;;;;;5057023;28;20021;-73
2022/09/17 14:22:05;;;;;;;2.75;0.85;;;;;;;;;;5056432;28;20051;-71
2022/09/17 14:24:43;;;;;;;1.45;0.60;;;;;;;;;;5056672;28;20079;-71
2022/09/17 14:27:13;;;;;;;2.28;0.70;;;;;;;;;;5056310;28;20017;-71
2022/09/17 14:29:41;;;;;;;2.25;0.57;;;;;;;;;;5056706;28;20033;-71
2022/09/17 14:32:14;;;;;;;2.05;0.80;;;;;;;;;;5056230;28;20020;-71
2022/09/17 14:34:41;;;;;;;3.03;0.80;;;;;;;;;;5056481;28;20025;-72
2022/09/17 14:37:11;;;;;;;1.88;1.00;;;;;;;;;;5056148;28;20425;-71
2022/09/17 14:39:38;;;;;;;1.25;0.60;;;;;;;;;;5056060;28;20116;-72
2022/09/17 14:42:05;;;;;;;3.63;0.60;;;;;;;;;;5056511;28;20032;-71
2022/09/17 14:44:33;;;;;;;0.98;0.50;;;;;;;;;;5056233;28;20059;-72
2022/09/17 14:47:20;;;;;;;3.90;0.90;;;;;;;;;;5056244;28;20021;-71
2022/09/17 14:49:47;;;;;;;1.77;0.80;;;;;;;;;;5056427;28;20025;-72
2022/09/17 14:52:25;;;;;;;1.55;1.00;;;;;;;;;;5055827;28;20071;-71
2022/09/17 14:55:10;;;;;;;1.20;0.80;;;;;;;;;;5055789;28;20086;-71
2022/09/17 14:57:37;;;;;;;2.75;0.80;;;;;;;;;;5055372;28;20373;-71
2022/09/17 15:00:04;;;;;;;2.13;1.00;;;;;;;;;;5054682;28;20107;-71
2022/09/17 15:02:40;;;;;;;1.80;0.70;;;;;;;;;;5055944;28;20051;-71